AirNav   Air Wisconsin Up To $57,000 Bonus
 
 1505 users online  

11VG Devil's Reach Landing Airport
Oak Grove, Virginia, USA

GOING TO OAK GROVE?


FAA INFORMATION EFFECTIVE 25 MARCH 2021

Location

FAA Identifier: 11VG
Lat/Long: 38-12-34.0000N 077-00-02.0000W
38-12.566667N 077-00.033333W
38.2094444,-77.0005556
(estimated)
Elevation: 28 ft. / 9 m (estimated)
From city: 2 miles N of OAK GROVE, VA
Time zone: UTC -4 (UTC -5 during Standard Time)
Zip code: 22443

Airport Operations

Airport use: Private use. Permission required prior to landing
Activation date: 08/2004
Control tower: no
ARTCC: WASHINGTON CENTER
FSS: LEESBURG FLIGHT SERVICE STATION
Attendance: UNATNDD
Wind indicator: yes
Segmented circle: no

Nearby radio navigation aids

VOR radial/distance  VOR name  Freq  Var
BRVr124/18.3BROOKE VORTAC114.5009W
PXTr271/28.7PATUXENT VORTAC117.6010W
OTTr212/32.1NOTTINGHAM VORTAC113.7010W
ADWr200/36.4ANDREWS VORTAC113.1010W
DCAr187/39.0WASHINGTON VOR/DME111.0009W

 
NDB name  Hdg/Dist  Freq  Var  ID
SHANNON109/21.523710WEZF . --.. ..-.
DAVEE178/27.622309WDAA -.. .- .-
PATUXENT271/28.540010WNHK -. .... -.-
OXONN189/33.433211WDCA -.. -.-. .-

Airport Services

Runway Information

Runway 15/33

Dimensions: 1800 x 70 ft. / 549 x 21 m
Surface: turf
RUNWAY 15  RUNWAY 33
Traffic pattern: leftleft
Obstructions: 50 ft. pline20 ft. trees

Airport Ownership and Management from official FAA records

Ownership: Privately-owned
Owner: LARRY SPROUSE
2986 KINGS HWY SUITE H
OAK GROVE, VA 22443
Phone 804-224-2406
Manager: LARRY SPROUSE/ARTHUR NEWLON
2986 KINGS HWY SUITE H
OAK GROVE, VA 22443
Phone 804-224-2406

Airport Operational Statistics

Aircraft based on the field: 2
Single engine airplanes: 1
Ultralights: 1
    

Additional Remarks

FOR CD CTC POTOMAC APCH AT 866-640-4124.

Instrument Procedures

There are no published instrument procedures at 11VG.

Some nearby airports with instrument procedures:

KEZF - Shannon Airport (21 nm W)
KXSA - Tappahannock-Essex County Airport (22 nm S)
2W6 - St Mary's County Regional Airport (22 nm E)
KNYG - Quantico Marine Corps Airfield / Turner Field (23 nm NW)
2W5 - Maryland Airport (24 nm N)
 
Loc | Ops | Rwys | IFR | FBO | Links
Com | Nav | Svcs | Stats | Notes
Area around 11VG (Devil's Reach Landing Airport)
 
Road maps at: MapQuest Bing Google
 
Aerial photo
No photo
 
Sectional chart

 
Airport distance calculator
Flying to Devil's Reach Landing Airport? Find the distance to fly.

From to 11VG

Sunrise and sunset
Times for 12-Apr-2021
 Local
(UTC-4)
 Zulu
(UTC)
Morning civil twilight06:1110:11
Sunrise06:3810:38
Sunset19:4023:40
Evening civil twilight20:0700:07

Current date and time
Zulu (UTC)  12-Apr-2021 21:10:11
Local (UTC-4)  12-Apr-2021 17:10:11
 
METAR
KEZF 
21nm W 
122055Z AUTO 05008KT 10SM OVC090 18/10 A2972 RMK AO2 T01750101
KXSA 
22nm S 
122055Z AUTO 09007KT 10SM OVC065 16/13 A2973 RMK AO2 T01580131
KNYG 
22nm NW 
122056Z 02007KT 10SM BKN080 OVC090 17/11 A2974 RMK AO2 SLP073 T01670106 53004 $
KRMN 
24nm NW 
122055Z AUTO 06006KT 10SM OVC075 17/07 A2977 RMK AO2 T01650071
KNUI 
27nm E 
122053Z AUTO 03008KT 10SM BKN090 BKN100 18/11 A2973 RMK AO2 SLP067 T01780106 53002
KNHK 
29nm E 
122052Z 36009KT 10SM FEW020 SCT080 BKN100 16/12 A2974 RMK AO2 SLP071 T01610117 53002
KDAA 
31nm N 
122056Z AUTO 06003KT 10SM SCT100 15/10 A2975 RMK AO2 SLP077 60000 T01530096 53004 $
KOFP 
37nm SW 
122054Z AUTO 08004KT 10SM SCT080 OVC095 19/11 A2972 RMK AO2 SLP064 T01940106 53004
KADW 
37nm N 
122056Z AUTO 06007KT 10SM FEW100 SCT170 SCT210 14/09 A2975 RMK AO2 SLP081 60000 T01370089 53003 $
K7W4 
38nm W 
122055Z AUTO 28006KT 10SM SCT060 OVC085 19/06 A2971 RMK AO1 T01930064
TAF
KNYG 
22nm NW 
1215/1315 05010KT 9999 SCT150 QNH2970INS BECMG 1219/1221 26004KT 8000 RA BR BKN030 QNH2971INS TEMPO 1303/1309 05005KT 6000 SHRA BR OVC005 QNH2993INS BECMG 1310/1312 03004KT 8000 BR OVC005 QNH3002INS T19/1221Z T10/1312Z
NOTAMs
Click for the latest NOTAMs
NOTAMs are issued by the DoD/FAA and will open in a separate window not controlled by AirNav.

 

 
 

Would you like to see your business listed on this page?

 If your business provides an interesting product or service to pilots, flight crews, aircraft, or users of the Devil's Reach Landing Airport, you should consider listing it here.  To start the listing process, click on the button below
 
Add a business
 

Other Pages about Devil's Reach Landing Airport

Update a link
 
Copyright © AirNav, LLC. All rights reserved. Privacy Policy  Contact